ADDS METAR Data INFO
IDs: Format: Raw Decoded Include TAF

Data at: 2140 UTC 24 Feb 2018

METAR for:KTZR (Columbus/Bolton Fld, OH, US)
Text:KTZR 242047Z COR 08005KT 10SM -RA OVC010 10/08 A3001 RMK RAB25
Temperature: 10.0°C ( 50°F)
Dewpoint: 8.0°C ( 46°F) [RH = 87%]
Pressure (altimeter):30.01 inches Hg (1016.3 mb)
Winds:from the E (80 degrees) at 6 MPH (5 knots; 2.6 m/s)
Visibility:10 or more sm (16+ km)
Ceiling:1000 feet AGL
Clouds: overcast cloud deck at 1000 feet AGL
Weather:-RA (light rain)